This is the latest recevied weather packets stored in our database for station/object IW2HNF-3. If no packets are shown the sender has not sent any weather packets the latest 1 day(s).
| Time | Temp. | Humidity | Pressure | Rain* | Wind** | Luminosity | Snow |
|---|---|---|---|---|---|---|---|
| 1777984262 | 12.78° C | 93% | 1012.1 hPa | 1.02 mm | 0 m/s | - | - |
| 1777983638 | 12.78° C | 93% | 1012.1 hPa | 1.02 mm | 0.45 m/s, 128° | - | - |
| 1777981862 | 12.78° C | 94% | 1012.1 hPa | 1.27 mm | 0.45 m/s, 270° | - | - |
| 1777981238 | 12.78° C | 94% | 1012.2 hPa | 1.02 mm | 0 m/s | - | - |
| 1777980662 | 12.78° C | 93% | 1012.2 hPa | 1.02 mm | 0.45 m/s, 270° | - | - |
| 1777980038 | 12.78° C | 93% | 1012.2 hPa | 1.27 mm | 0.89 m/s, 296° | - | - |
| 1777979462 | 12.78° C | 93% | 1012.3 hPa | 1.02 mm | 0 m/s | - | - |
| 1777978838 | 12.78° C | 93% | 1012.3 hPa | 1.27 mm | 0.45 m/s, 293° | - | - |
| 1777978262 | 12.78° C | 93% | 1012.3 hPa | 1.02 mm | 0.45 m/s, 293° | - | - |
| 1777977639 | 12.78° C | 93% | 1012.3 hPa | 1.27 mm | 0 m/s | - | - |
| 1777976438 | 12.78° C | 93% | 1012.2 hPa | 1.02 mm | 0 m/s | - | - |
| 1777975862 | 12.78° C | 93% | 1012.3 hPa | 1.27 mm | 0.45 m/s, 0° | - | - |
| 1777975670 | 12.78° C | 93% | 1012.3 hPa | 1.02 mm | 0 m/s | - | - |
| 1777974661 | 12.78° C | 93% | 1012.3 hPa | 1.02 mm | 0 m/s | - | - |
| 1777974038 | 12.78° C | 93% | 1012.2 hPa | 0.51 mm | 0.45 m/s, 0° | - | - |
| 1777973462 | 12.78° C | 93% | 1012.1 hPa | 0.25 mm | 0.89 m/s, 319° | - | - |
| 1777972837 | 12.78° C | 93% | 1012.1 hPa | 0.51 mm | 0.45 m/s, 6° | - | - |
| 1777972262 | 12.78° C | 92% | 1012.1 hPa | 0.51 mm | 0.89 m/s, 332° | - | - |
| 1777971639 | 12.78° C | 92% | 1012.1 hPa | 1.02 mm | 0.45 m/s, 322° | - | - |
| 1777969862 | 12.78° C | 93% | 1011.9 hPa | 1.78 mm | 0.89 m/s, 5° | - | - |
| 1777969238 | 12.78° C | 94% | 1011.9 hPa | 2.03 mm | 1.34 m/s, 34° | - | - |
| 1777968662 | 12.78° C | 94% | 1011.9 hPa | 2.29 mm | 1.34 m/s, 20° | - | - |
| 1777968326 | 12.78° C | 94% | 1011.8 hPa | 3.3 mm | 1.34 m/s, 0° | - | - |
| 1777967462 | 12.78° C | 95% | 1011.8 hPa | 4.57 mm | 0.89 m/s, 17° | - | - |
| 1777966842 | 12.78° C | 95% | 1011.7 hPa | 4.83 mm | 1.79 m/s, 14° | - | - |
* Rain latest hour (hover to see other rain measurements)
** Current wind speed in m/s (hover to see current wind gust speed)